sensor_id;sensor_type;location;lat;lon;timestamp;P1;durP1;ratioP1;P2;durP2;ratioP2
74465;SDS011;62916;50.044;15.938;2023-02-28T00:02:11;3.00;;;1.20;;
74465;SDS011;62916;50.044;15.938;2023-02-28T00:04:42;1.50;;;0.80;;
74465;SDS011;62916;50.044;15.938;2023-02-28T00:07:13;1.30;;;1.10;;
74465;SDS011;62916;50.044;15.938;2023-02-28T00:09:44;2.30;;;0.90;;
74465;SDS011;62916;50.044;15.938;2023-02-28T00:12:15;1.30;;;0.80;;
74465;SDS011;62916;50.044;15.938;2023-02-28T00:14:45;1.70;;;0.70;;
74465;SDS011;62916;50.044;15.938;2023-02-28T00:17:17;0.90;;;0.80;;
74465;SDS011;62916;50.044;15.938;2023-02-28T00:19:48;1.80;;;0.80;;
74465;SDS011;62916;50.044;15.938;2023-02-28T00:22:20;1.20;;;0.80;;
74465;SDS011;62916;50.044;15.938;2023-02-28T00:24:51;1.00;;;0.80;;
74465;SDS011;62916;50.044;15.938;2023-02-28T00:27:22;1.60;;;0.90;;
74465;SDS011;62916;50.044;15.938;2023-02-28T00:29:53;1.20;;;0.80;;
74465;SDS011;62916;50.044;15.938;2023-02-28T00:32:24;1.00;;;0.90;;
74465;SDS011;62916;50.044;15.938;2023-02-28T00:34:55;0.90;;;0.70;;
74465;SDS011;62916;50.044;15.938;2023-02-28T00:37:26;1.40;;;0.70;;
74465;SDS011;62916;50.044;15.938;2023-02-28T00:39:56;1.30;;;0.80;;
74465;SDS011;62916;50.044;15.938;2023-02-28T00:42:27;1.20;;;1.00;;
74465;SDS011;62916;50.044;15.938;2023-02-28T00:44:58;1.40;;;0.80;;
74465;SDS011;62916;50.044;15.938;2023-02-28T00:47:31;0.90;;;0.80;;
74465;SDS011;62916;50.044;15.938;2023-02-28T00:50:03;1.20;;;0.90;;
74465;SDS011;62916;50.044;15.938;2023-02-28T00:52:36;1.20;;;0.90;;
74465;SDS011;62916;50.044;15.938;2023-02-28T00:55:08;0.80;;;0.50;;
74465;SDS011;62916;50.044;15.938;2023-02-28T00:57:40;1.40;;;1.00;;
74465;SDS011;62916;50.044;15.938;2023-02-28T01:00:12;1.40;;;0.90;;
74465;SDS011;62916;50.044;15.938;2023-02-28T01:02:43;1.60;;;0.60;;
74465;SDS011;62916;50.044;15.938;2023-02-28T01:05:15;1.50;;;0.60;;
74465;SDS011;62916;50.044;15.938;2023-02-28T01:07:45;0.90;;;0.70;;
74465;SDS011;62916;50.044;15.938;2023-02-28T01:10:17;0.80;;;0.80;;
74465;SDS011;62916;50.044;15.938;2023-02-28T01:12:48;0.80;;;0.70;;
74465;SDS011;62916;50.044;15.938;2023-02-28T01:15:19;0.90;;;0.60;;
74465;SDS011;62916;50.044;15.938;2023-02-28T01:17:50;1.00;;;0.70;;
74465;SDS011;62916;50.044;15.938;2023-02-28T01:20:21;0.90;;;0.70;;
74465;SDS011;62916;50.044;15.938;2023-02-28T01:22:52;1.90;;;0.70;;
74465;SDS011;62916;50.044;15.938;2023-02-28T01:25:23;1.00;;;0.70;;
74465;SDS011;62916;50.044;15.938;2023-02-28T01:27:54;1.10;;;0.70;;
74465;SDS011;62916;50.044;15.938;2023-02-28T01:30:25;1.00;;;0.70;;
74465;SDS011;62916;50.044;15.938;2023-02-28T01:32:56;1.00;;;0.50;;
74465;SDS011;62916;50.044;15.938;2023-02-28T01:35:27;0.90;;;0.60;;
74465;SDS011;62916;50.044;15.938;2023-02-28T01:38:00;1.00;;;0.60;;
74465;SDS011;62916;50.044;15.938;2023-02-28T01:40:47;1.40;;;0.80;;
74465;SDS011;62916;50.044;15.938;2023-02-28T01:43:21;1.10;;;0.80;;
74465;SDS011;62916;50.044;15.938;2023-02-28T01:45:54;1.00;;;0.90;;
74465;SDS011;62916;50.044;15.938;2023-02-28T01:48:26;1.20;;;0.90;;
74465;SDS011;62916;50.044;15.938;2023-02-28T01:53:34;1.00;;;0.60;;
74465;SDS011;62916;50.044;15.938;2023-02-28T01:56:11;0.70;;;0.60;;
74465;SDS011;62916;50.044;15.938;2023-02-28T01:58:48;0.70;;;0.70;;
74465;SDS011;62916;50.044;15.938;2023-02-28T02:01:21;2.00;;;0.90;;
74465;SDS011;62916;50.044;15.938;2023-02-28T02:03:56;1.00;;;0.60;;
74465;SDS011;62916;50.044;15.938;2023-02-28T02:06:31;1.10;;;0.80;;
74465;SDS011;62916;50.044;15.938;2023-02-28T02:09:06;1.70;;;0.60;;
74465;SDS011;62916;50.044;15.938;2023-02-28T02:11:37;1.20;;;0.90;;
74465;SDS011;62916;50.044;15.938;2023-02-28T02:14:17;0.90;;;0.70;;
74465;SDS011;62916;50.044;15.938;2023-02-28T02:17:07;1.30;;;0.50;;
74465;SDS011;62916;50.044;15.938;2023-02-28T02:23:03;1.10;;;0.60;;
74465;SDS011;62916;50.044;15.938;2023-02-28T02:25:46;1.60;;;0.90;;
74465;SDS011;62916;50.044;15.938;2023-02-28T02:28:44;1.00;;;0.60;;
74465;SDS011;62916;50.044;15.938;2023-02-28T02:37:13;1.10;;;0.50;;
74465;SDS011;62916;50.044;15.938;2023-02-28T02:39:50;1.30;;;0.90;;
74465;SDS011;62916;50.044;15.938;2023-02-28T02:42:27;1.70;;;0.60;;
74465;SDS011;62916;50.044;15.938;2023-02-28T02:45:03;0.70;;;0.60;;
74465;SDS011;62916;50.044;15.938;2023-02-28T02:47:39;0.70;;;0.70;;
74465;SDS011;62916;50.044;15.938;2023-02-28T02:50:13;2.00;;;0.70;;
74465;SDS011;62916;50.044;15.938;2023-02-28T02:52:49;1.80;;;0.70;;
74465;SDS011;62916;50.044;15.938;2023-02-28T02:55:24;1.10;;;0.50;;
74465;SDS011;62916;50.044;15.938;2023-02-28T02:57:56;0.70;;;0.50;;
74465;SDS011;62916;50.044;15.938;2023-02-28T03:00:32;1.00;;;0.80;;
74465;SDS011;62916;50.044;15.938;2023-02-28T03:03:10;1.40;;;0.70;;
74465;SDS011;62916;50.044;15.938;2023-02-28T03:05:46;1.00;;;0.50;;
74465;SDS011;62916;50.044;15.938;2023-02-28T03:08:18;1.10;;;0.50;;
74465;SDS011;62916;50.044;15.938;2023-02-28T03:10:49;0.70;;;0.70;;
74465;SDS011;62916;50.044;15.938;2023-02-28T03:16:32;1.10;;;0.50;;
74465;SDS011;62916;50.044;15.938;2023-02-28T03:19:12;0.80;;;0.60;;
74465;SDS011;62916;50.044;15.938;2023-02-28T03:21:57;0.80;;;0.60;;
74465;SDS011;62916;50.044;15.938;2023-02-28T03:24:41;1.10;;;0.60;;
74465;SDS011;62916;50.044;15.938;2023-02-28T03:27:19;0.90;;;0.50;;
74465;SDS011;62916;50.044;15.938;2023-02-28T03:29:54;1.30;;;0.70;;
74465;SDS011;62916;50.044;15.938;2023-02-28T03:32:32;1.10;;;0.70;;
74465;SDS011;62916;50.044;15.938;2023-02-28T03:35:09;0.60;;;0.50;;
74465;SDS011;62916;50.044;15.938;2023-02-28T03:37:50;0.90;;;0.50;;
74465;SDS011;62916;50.044;15.938;2023-02-28T03:40:28;0.80;;;0.60;;
74465;SDS011;62916;50.044;15.938;2023-02-28T03:43:03;1.30;;;1.10;;
74465;SDS011;62916;50.044;15.938;2023-02-28T03:45:41;1.10;;;0.60;;
74465;SDS011;62916;50.044;15.938;2023-02-28T03:48:15;1.30;;;0.70;;
74465;SDS011;62916;50.044;15.938;2023-02-28T03:50:53;0.90;;;0.60;;
74465;SDS011;62916;50.044;15.938;2023-02-28T03:53:27;0.90;;;0.60;;
74465;SDS011;62916;50.044;15.938;2023-02-28T03:56:03;0.80;;;0.60;;
74465;SDS011;62916;50.044;15.938;2023-02-28T03:58:42;1.40;;;0.70;;
74465;SDS011;62916;50.044;15.938;2023-02-28T04:01:18;1.20;;;0.90;;
74465;SDS011;62916;50.044;15.938;2023-02-28T04:03:54;0.90;;;0.60;;
74465;SDS011;62916;50.044;15.938;2023-02-28T04:06:25;1.10;;;0.70;;
74465;SDS011;62916;50.044;15.938;2023-02-28T04:08:56;0.90;;;0.70;;
74465;SDS011;62916;50.044;15.938;2023-02-28T04:11:29;1.40;;;0.80;;
74465;SDS011;62916;50.044;15.938;2023-02-28T04:14:04;1.10;;;0.70;;
74465;SDS011;62916;50.044;15.938;2023-02-28T04:16:37;1.10;;;0.90;;
74465;SDS011;62916;50.044;15.938;2023-02-28T04:19:10;1.40;;;0.70;;
74465;SDS011;62916;50.044;15.938;2023-02-28T04:21:42;1.50;;;0.90;;
74465;SDS011;62916;50.044;15.938;2023-02-28T04:24:14;1.00;;;0.70;;
74465;SDS011;62916;50.044;15.938;2023-02-28T04:26:47;1.50;;;0.90;;
74465;SDS011;62916;50.044;15.938;2023-02-28T04:29:20;0.70;;;0.60;;
74465;SDS011;62916;50.044;15.938;2023-02-28T04:31:52;2.10;;;0.60;;
74465;SDS011;62916;50.044;15.938;2023-02-28T04:34:25;0.60;;;0.40;;
74465;SDS011;62916;50.044;15.938;2023-02-28T04:36:58;1.20;;;1.10;;
74465;SDS011;62916;50.044;15.938;2023-02-28T04:39:40;0.80;;;0.50;;
74465;SDS011;62916;50.044;15.938;2023-02-28T04:42:12;1.00;;;0.90;;
74465;SDS011;62916;50.044;15.938;2023-02-28T04:44:43;1.00;;;0.90;;
74465;SDS011;62916;50.044;15.938;2023-02-28T04:47:15;1.10;;;0.60;;
74465;SDS011;62916;50.044;15.938;2023-02-28T04:49:46;1.10;;;0.70;;
74465;SDS011;62916;50.044;15.938;2023-02-28T04:52:16;0.90;;;0.80;;
74465;SDS011;62916;50.044;15.938;2023-02-28T04:54:47;3.20;;;1.40;;
74465;SDS011;62916;50.044;15.938;2023-02-28T04:57:18;2.10;;;1.20;;
74465;SDS011;62916;50.044;15.938;2023-02-28T04:59:50;1.30;;;1.00;;
74465;SDS011;62916;50.044;15.938;2023-02-28T05:02:21;2.20;;;0.80;;
74465;SDS011;62916;50.044;15.938;2023-02-28T05:04:52;0.90;;;0.70;;
74465;SDS011;62916;50.044;15.938;2023-02-28T05:07:24;3.30;;;1.10;;
74465;SDS011;62916;50.044;15.938;2023-02-28T05:09:55;4.80;;;1.10;;
74465;SDS011;62916;50.044;15.938;2023-02-28T05:12:28;10.70;;;1.90;;
74465;SDS011;62916;50.044;15.938;2023-02-28T05:14:59;11.60;;;1.50;;
74465;SDS011;62916;50.044;15.938;2023-02-28T05:17:30;14.70;;;1.70;;
74465;SDS011;62916;50.044;15.938;2023-02-28T05:20:01;15.00;;;1.90;;
74465;SDS011;62916;50.044;15.938;2023-02-28T05:22:42;16.00;;;2.00;;
74465;SDS011;62916;50.044;15.938;2023-02-28T05:25:15;15.30;;;2.10;;
74465;SDS011;62916;50.044;15.938;2023-02-28T05:27:47;15.50;;;2.20;;
74465;SDS011;62916;50.044;15.938;2023-02-28T05:30:18;18.30;;;2.40;;
74465;SDS011;62916;50.044;15.938;2023-02-28T05:32:51;14.60;;;2.50;;
74465;SDS011;62916;50.044;15.938;2023-02-28T05:35:22;11.60;;;2.00;;
74465;SDS011;62916;50.044;15.938;2023-02-28T05:37:55;14.30;;;2.20;;
74465;SDS011;62916;50.044;15.938;2023-02-28T05:40:26;13.90;;;1.80;;
74465;SDS011;62916;50.044;15.938;2023-02-28T05:42:57;8.30;;;2.00;;
74465;SDS011;62916;50.044;15.938;2023-02-28T05:45:28;9.50;;;2.50;;
74465;SDS011;62916;50.044;15.938;2023-02-28T05:47:59;13.70;;;2.20;;
74465;SDS011;62916;50.044;15.938;2023-02-28T05:50:30;12.80;;;2.10;;
74465;SDS011;62916;50.044;15.938;2023-02-28T05:53:00;10.20;;;1.70;;
74465;SDS011;62916;50.044;15.938;2023-02-28T05:55:31;12.10;;;2.00;;
74465;SDS011;62916;50.044;15.938;2023-02-28T05:58:03;12.10;;;1.60;;
74465;SDS011;62916;50.044;15.938;2023-02-28T06:00:34;14.20;;;1.90;;
74465;SDS011;62916;50.044;15.938;2023-02-28T06:03:08;8.10;;;1.60;;
74465;SDS011;62916;50.044;15.938;2023-02-28T06:05:39;8.50;;;2.00;;
74465;SDS011;62916;50.044;15.938;2023-02-28T06:08:10;8.30;;;1.40;;
74465;SDS011;62916;50.044;15.938;2023-02-28T06:10:41;7.50;;;1.90;;
74465;SDS011;62916;50.044;15.938;2023-02-28T06:13:12;6.30;;;1.60;;
74465;SDS011;62916;50.044;15.938;2023-02-28T06:15:43;8.50;;;1.40;;
74465;SDS011;62916;50.044;15.938;2023-02-28T06:18:14;9.60;;;1.80;;
74465;SDS011;62916;50.044;15.938;2023-02-28T06:20:45;7.40;;;1.30;;
74465;SDS011;62916;50.044;15.938;2023-02-28T06:23:23;8.80;;;1.60;;
74465;SDS011;62916;50.044;15.938;2023-02-28T06:25:54;5.30;;;1.20;;
74465;SDS011;62916;50.044;15.938;2023-02-28T06:28:26;4.50;;;1.30;;
74465;SDS011;62916;50.044;15.938;2023-02-28T06:30:56;6.40;;;1.30;;
74465;SDS011;62916;50.044;15.938;2023-02-28T06:33:27;7.90;;;1.40;;
74465;SDS011;62916;50.044;15.938;2023-02-28T06:35:58;5.60;;;1.50;;
74465;SDS011;62916;50.044;15.938;2023-02-28T06:38:29;6.50;;;1.60;;
74465;SDS011;62916;50.044;15.938;2023-02-28T06:41:00;7.00;;;2.00;;
74465;SDS011;62916;50.044;15.938;2023-02-28T06:43:32;4.60;;;1.70;;
74465;SDS011;62916;50.044;15.938;2023-02-28T06:46:07;5.60;;;1.20;;
74465;SDS011;62916;50.044;15.938;2023-02-28T06:48:42;5.80;;;1.20;;
74465;SDS011;62916;50.044;15.938;2023-02-28T06:51:15;3.60;;;1.40;;
74465;SDS011;62916;50.044;15.938;2023-02-28T06:53:50;5.70;;;1.50;;
74465;SDS011;62916;50.044;15.938;2023-02-28T06:56:20;5.30;;;1.20;;
74465;SDS011;62916;50.044;15.938;2023-02-28T06:58:51;5.40;;;1.30;;
74465;SDS011;62916;50.044;15.938;2023-02-28T07:01:22;6.00;;;1.00;;
74465;SDS011;62916;50.044;15.938;2023-02-28T07:03:56;4.60;;;1.40;;
74465;SDS011;62916;50.044;15.938;2023-02-28T07:06:27;5.10;;;1.30;;
74465;SDS011;62916;50.044;15.938;2023-02-28T07:08:58;5.30;;;1.50;;
74465;SDS011;62916;50.044;15.938;2023-02-28T07:11:29;2.90;;;1.50;;
74465;SDS011;62916;50.044;15.938;2023-02-28T07:14:00;3.70;;;1.10;;
74465;SDS011;62916;50.044;15.938;2023-02-28T07:16:31;5.60;;;1.20;;
74465;SDS011;62916;50.044;15.938;2023-02-28T07:19:02;5.50;;;2.00;;
74465;SDS011;62916;50.044;15.938;2023-02-28T07:21:33;5.60;;;1.10;;
74465;SDS011;62916;50.044;15.938;2023-02-28T07:24:04;2.40;;;1.20;;
74465;SDS011;62916;50.044;15.938;2023-02-28T07:26:36;3.20;;;1.20;;
74465;SDS011;62916;50.044;15.938;2023-02-28T07:29:06;3.60;;;1.10;;
74465;SDS011;62916;50.044;15.938;2023-02-28T07:31:37;3.80;;;1.00;;
74465;SDS011;62916;50.044;15.938;2023-02-28T07:34:08;3.70;;;1.20;;
74465;SDS011;62916;50.044;15.938;2023-02-28T07:36:39;4.30;;;1.30;;
74465;SDS011;62916;50.044;15.938;2023-02-28T07:39:10;6.50;;;1.30;;
74465;SDS011;62916;50.044;15.938;2023-02-28T07:41:42;4.50;;;1.00;;
74465;SDS011;62916;50.044;15.938;2023-02-28T07:44:13;3.40;;;1.50;;
74465;SDS011;62916;50.044;15.938;2023-02-28T07:46:44;3.90;;;0.90;;
74465;SDS011;62916;50.044;15.938;2023-02-28T07:49:15;4.30;;;1.20;;
74465;SDS011;62916;50.044;15.938;2023-02-28T07:51:46;3.40;;;1.30;;
74465;SDS011;62916;50.044;15.938;2023-02-28T07:54:17;3.40;;;1.00;;
74465;SDS011;62916;50.044;15.938;2023-02-28T07:56:47;2.80;;;1.20;;
74465;SDS011;62916;50.044;15.938;2023-02-28T07:59:19;4.00;;;1.30;;
74465;SDS011;62916;50.044;15.938;2023-02-28T08:01:50;3.10;;;0.90;;
74465;SDS011;62916;50.044;15.938;2023-02-28T08:04:21;3.20;;;1.10;;
74465;SDS011;62916;50.044;15.938;2023-02-28T08:06:51;4.20;;;1.30;;
74465;SDS011;62916;50.044;15.938;2023-02-28T08:09:24;5.00;;;1.40;;
74465;SDS011;62916;50.044;15.938;2023-02-28T08:11:55;2.90;;;1.00;;
74465;SDS011;62916;50.044;15.938;2023-02-28T08:14:26;2.20;;;1.00;;
74465;SDS011;62916;50.044;15.938;2023-02-28T08:16:57;4.80;;;1.00;;
74465;SDS011;62916;50.044;15.938;2023-02-28T08:19:28;2.40;;;1.10;;
74465;SDS011;62916;50.044;15.938;2023-02-28T08:21:59;2.90;;;0.90;;
74465;SDS011;62916;50.044;15.938;2023-02-28T08:24:30;3.00;;;1.10;;
74465;SDS011;62916;50.044;15.938;2023-02-28T08:27:01;3.00;;;1.40;;
74465;SDS011;62916;50.044;15.938;2023-02-28T08:29:32;2.40;;;1.00;;
74465;SDS011;62916;50.044;15.938;2023-02-28T08:32:03;1.90;;;0.90;;
74465;SDS011;62916;50.044;15.938;2023-02-28T08:34:47;3.40;;;1.30;;
74465;SDS011;62916;50.044;15.938;2023-02-28T08:37:18;2.70;;;1.10;;
74465;SDS011;62916;50.044;15.938;2023-02-28T08:39:49;2.60;;;0.90;;
74465;SDS011;62916;50.044;15.938;2023-02-28T08:42:23;1.90;;;0.90;;
74465;SDS011;62916;50.044;15.938;2023-02-28T08:44:54;2.40;;;0.90;;
74465;SDS011;62916;50.044;15.938;2023-02-28T08:47:25;2.60;;;1.20;;
74465;SDS011;62916;50.044;15.938;2023-02-28T08:49:56;3.40;;;1.20;;
74465;SDS011;62916;50.044;15.938;2023-02-28T08:52:27;2.80;;;1.10;;
74465;SDS011;62916;50.044;15.938;2023-02-28T08:54:58;2.10;;;1.50;;
74465;SDS011;62916;50.044;15.938;2023-02-28T08:57:29;3.40;;;1.00;;
74465;SDS011;62916;50.044;15.938;2023-02-28T09:00:01;2.60;;;1.20;;
74465;SDS011;62916;50.044;15.938;2023-02-28T09:02:33;2.40;;;1.00;;
74465;SDS011;62916;50.044;15.938;2023-02-28T09:05:05;3.70;;;1.00;;
74465;SDS011;62916;50.044;15.938;2023-02-28T09:07:37;3.30;;;0.90;;
74465;SDS011;62916;50.044;15.938;2023-02-28T09:10:09;3.10;;;1.20;;
74465;SDS011;62916;50.044;15.938;2023-02-28T09:12:41;2.50;;;1.10;;
74465;SDS011;62916;50.044;15.938;2023-02-28T09:15:14;2.30;;;0.80;;
74465;SDS011;62916;50.044;15.938;2023-02-28T09:17:45;2.00;;;1.00;;
74465;SDS011;62916;50.044;15.938;2023-02-28T09:20:16;2.40;;;1.00;;
74465;SDS011;62916;50.044;15.938;2023-02-28T09:22:47;3.00;;;1.10;;
74465;SDS011;62916;50.044;15.938;2023-02-28T09:25:18;4.00;;;1.60;;
74465;SDS011;62916;50.044;15.938;2023-02-28T09:27:49;2.70;;;1.20;;
74465;SDS011;62916;50.044;15.938;2023-02-28T09:30:20;1.90;;;1.00;;
74465;SDS011;62916;50.044;15.938;2023-02-28T09:32:51;2.30;;;1.20;;
74465;SDS011;62916;50.044;15.938;2023-02-28T09:35:22;2.60;;;1.10;;
74465;SDS011;62916;50.044;15.938;2023-02-28T09:37:54;3.20;;;1.20;;
74465;SDS011;62916;50.044;15.938;2023-02-28T09:40:26;2.60;;;1.30;;
74465;SDS011;62916;50.044;15.938;2023-02-28T09:42:57;1.80;;;1.20;;
74465;SDS011;62916;50.044;15.938;2023-02-28T09:45:30;1.90;;;1.20;;
74465;SDS011;62916;50.044;15.938;2023-02-28T09:48:07;2.40;;;1.20;;
74465;SDS011;62916;50.044;15.938;2023-02-28T09:50:45;2.40;;;1.40;;
74465;SDS011;62916;50.044;15.938;2023-02-28T09:53:20;2.90;;;0.90;;
74465;SDS011;62916;50.044;15.938;2023-02-28T09:55:58;1.80;;;1.20;;
74465;SDS011;62916;50.044;15.938;2023-02-28T09:58:33;1.90;;;1.10;;
74465;SDS011;62916;50.044;15.938;2023-02-28T10:01:12;2.20;;;1.00;;
74465;SDS011;62916;50.044;15.938;2023-02-28T10:03:56;2.80;;;1.20;;
74465;SDS011;62916;50.044;15.938;2023-02-28T10:06:30;1.60;;;1.10;;
74465;SDS011;62916;50.044;15.938;2023-02-28T10:09:08;1.60;;;1.00;;
74465;SDS011;62916;50.044;15.938;2023-02-28T10:11:44;2.10;;;1.10;;
74465;SDS011;62916;50.044;15.938;2023-02-28T10:14:18;2.30;;;1.40;;
74465;SDS011;62916;50.044;15.938;2023-02-28T10:16:52;3.10;;;1.30;;
74465;SDS011;62916;50.044;15.938;2023-02-28T10:19:26;1.80;;;1.10;;
74465;SDS011;62916;50.044;15.938;2023-02-28T10:22:04;2.50;;;1.10;;
74465;SDS011;62916;50.044;15.938;2023-02-28T10:24:40;1.60;;;1.00;;
74465;SDS011;62916;50.044;15.938;2023-02-28T10:27:14;2.30;;;1.20;;
74465;SDS011;62916;50.044;15.938;2023-02-28T10:29:47;2.30;;;1.20;;
74465;SDS011;62916;50.044;15.938;2023-02-28T10:32:21;1.80;;;1.00;;
74465;SDS011;62916;50.044;15.938;2023-02-28T10:34:57;2.70;;;1.30;;
74465;SDS011;62916;50.044;15.938;2023-02-28T10:37:29;2.60;;;1.30;;
74465;SDS011;62916;50.044;15.938;2023-02-28T10:40:00;1.90;;;1.20;;
74465;SDS011;62916;50.044;15.938;2023-02-28T10:42:34;2.10;;;1.10;;
74465;SDS011;62916;50.044;15.938;2023-02-28T10:45:10;2.50;;;1.20;;
74465;SDS011;62916;50.044;15.938;2023-02-28T10:47:49;1.30;;;1.20;;
74465;SDS011;62916;50.044;15.938;2023-02-28T10:50:36;2.20;;;1.70;;
74465;SDS011;62916;50.044;15.938;2023-02-28T10:53:35;1.50;;;1.10;;
74465;SDS011;62916;50.044;15.938;2023-02-28T10:56:28;1.70;;;0.90;;
74465;SDS011;62916;50.044;15.938;2023-02-28T10:59:02;2.70;;;1.20;;
74465;SDS011;62916;50.044;15.938;2023-02-28T11:01:51;2.40;;;1.10;;
74465;SDS011;62916;50.044;15.938;2023-02-28T11:04:32;2.10;;;1.50;;
74465;SDS011;62916;50.044;15.938;2023-02-28T11:07:18;2.60;;;1.60;;
74465;SDS011;62916;50.044;15.938;2023-02-28T11:09:52;2.30;;;1.10;;
74465;SDS011;62916;50.044;15.938;2023-02-28T11:12:25;2.70;;;1.40;;
74465;SDS011;62916;50.044;15.938;2023-02-28T11:14:59;2.20;;;1.00;;
74465;SDS011;62916;50.044;15.938;2023-02-28T11:17:35;1.50;;;1.00;;
74465;SDS011;62916;50.044;15.938;2023-02-28T11:20:07;1.90;;;1.10;;
74465;SDS011;62916;50.044;15.938;2023-02-28T11:22:47;1.30;;;1.00;;
74465;SDS011;62916;50.044;15.938;2023-02-28T11:25:21;2.10;;;1.30;;
74465;SDS011;62916;50.044;15.938;2023-02-28T11:27:55;2.80;;;1.30;;
74465;SDS011;62916;50.044;15.938;2023-02-28T11:30:32;1.60;;;1.10;;
74465;SDS011;62916;50.044;15.938;2023-02-28T11:33:21;1.90;;;1.10;;
74465;SDS011;62916;50.044;15.938;2023-02-28T11:35:57;1.60;;;1.10;;
74465;SDS011;62916;50.044;15.938;2023-02-28T11:38:30;2.30;;;1.20;;
74465;SDS011;62916;50.044;15.938;2023-02-28T11:41:12;1.50;;;1.20;;
74465;SDS011;62916;50.044;15.938;2023-02-28T11:43:55;1.50;;;1.20;;
74465;SDS011;62916;50.044;15.938;2023-02-28T11:46:37;1.60;;;1.10;;
74465;SDS011;62916;50.044;15.938;2023-02-28T11:49:17;1.70;;;0.90;;
74465;SDS011;62916;50.044;15.938;2023-02-28T11:52:01;1.30;;;1.00;;
74465;SDS011;62916;50.044;15.938;2023-02-28T11:57:35;3.00;;;1.30;;
74465;SDS011;62916;50.044;15.938;2023-02-28T12:00:28;2.20;;;1.10;;
74465;SDS011;62916;50.044;15.938;2023-02-28T12:03:10;1.40;;;1.00;;
74465;SDS011;62916;50.044;15.938;2023-02-28T12:05:50;1.80;;;1.30;;
74465;SDS011;62916;50.044;15.938;2023-02-28T12:08:32;2.60;;;1.40;;
74465;SDS011;62916;50.044;15.938;2023-02-28T12:11:14;1.30;;;0.90;;
74465;SDS011;62916;50.044;15.938;2023-02-28T12:13:58;1.90;;;1.10;;
74465;SDS011;62916;50.044;15.938;2023-02-28T12:16:48;2.70;;;1.50;;
74465;SDS011;62916;50.044;15.938;2023-02-28T12:19:31;1.90;;;1.10;;
74465;SDS011;62916;50.044;15.938;2023-02-28T12:22:18;2.10;;;1.30;;
74465;SDS011;62916;50.044;15.938;2023-02-28T12:28:04;1.60;;;1.10;;
74465;SDS011;62916;50.044;15.938;2023-02-28T12:30:38;1.80;;;1.10;;
74465;SDS011;62916;50.044;15.938;2023-02-28T12:35:49;1.40;;;1.10;;
74465;SDS011;62916;50.044;15.938;2023-02-28T12:38:25;1.80;;;0.90;;
74465;SDS011;62916;50.044;15.938;2023-02-28T12:40:59;1.60;;;1.10;;
74465;SDS011;62916;50.044;15.938;2023-02-28T12:43:32;1.60;;;0.90;;
74465;SDS011;62916;50.044;15.938;2023-02-28T12:46:07;2.40;;;1.30;;
74465;SDS011;62916;50.044;15.938;2023-02-28T12:48:44;1.80;;;1.20;;
74465;SDS011;62916;50.044;15.938;2023-02-28T12:51:19;2.00;;;1.30;;
74465;SDS011;62916;50.044;15.938;2023-02-28T12:53:54;2.20;;;1.20;;
74465;SDS011;62916;50.044;15.938;2023-02-28T12:56:36;2.30;;;1.40;;
74465;SDS011;62916;50.044;15.938;2023-02-28T12:59:14;2.00;;;1.00;;
74465;SDS011;62916;50.044;15.938;2023-02-28T13:05:26;1.70;;;1.10;;
74465;SDS011;62916;50.044;15.938;2023-02-28T13:11:03;2.10;;;1.30;;
74465;SDS011;62916;50.044;15.938;2023-02-28T13:13:48;1.90;;;1.40;;
74465;SDS011;62916;50.044;15.938;2023-02-28T13:16:25;1.80;;;1.20;;
74465;SDS011;62916;50.044;15.938;2023-02-28T13:19:09;2.00;;;1.20;;
74465;SDS011;62916;50.044;15.938;2023-02-28T13:27:20;1.50;;;1.20;;
74465;SDS011;62916;50.044;15.938;2023-02-28T13:33:25;2.30;;;1.10;;
74465;SDS011;62916;50.044;15.938;2023-02-28T13:36:05;2.50;;;1.40;;
74465;SDS011;62916;50.044;15.938;2023-02-28T13:38:40;2.20;;;1.30;;
74465;SDS011;62916;50.044;15.938;2023-02-28T13:44:23;1.50;;;1.20;;
74465;SDS011;62916;50.044;15.938;2023-02-28T13:49:52;1.60;;;1.00;;
74465;SDS011;62916;50.044;15.938;2023-02-28T13:52:46;2.40;;;1.30;;
74465;SDS011;62916;50.044;15.938;2023-02-28T13:55:27;1.70;;;1.30;;
74465;SDS011;62916;50.044;15.938;2023-02-28T13:58:10;1.70;;;1.10;;
74465;SDS011;62916;50.044;15.938;2023-02-28T14:01:03;1.80;;;1.40;;
74465;SDS011;62916;50.044;15.938;2023-02-28T14:03:49;1.80;;;1.10;;
74465;SDS011;62916;50.044;15.938;2023-02-28T14:06:35;1.70;;;1.20;;
74465;SDS011;62916;50.044;15.938;2023-02-28T14:09:16;1.90;;;1.20;;
74465;SDS011;62916;50.044;15.938;2023-02-28T14:11:52;1.90;;;1.40;;
74465;SDS011;62916;50.044;15.938;2023-02-28T14:17:26;2.10;;;1.10;;
74465;SDS011;62916;50.044;15.938;2023-02-28T14:19:57;1.80;;;1.10;;
74465;SDS011;62916;50.044;15.938;2023-02-28T14:22:39;1.80;;;1.00;;
74465;SDS011;62916;50.044;15.938;2023-02-28T14:25:27;1.70;;;1.20;;
74465;SDS011;62916;50.044;15.938;2023-02-28T14:28:10;2.10;;;1.00;;
74465;SDS011;62916;50.044;15.938;2023-02-28T14:30:56;4.00;;;1.20;;
74465;SDS011;62916;50.044;15.938;2023-02-28T14:33:34;5.10;;;1.50;;
74465;SDS011;62916;50.044;15.938;2023-02-28T14:36:16;7.00;;;1.50;;
74465;SDS011;62916;50.044;15.938;2023-02-28T14:38:51;4.20;;;1.60;;
74465;SDS011;62916;50.044;15.938;2023-02-28T14:41:29;7.10;;;1.50;;
74465;SDS011;62916;50.044;15.938;2023-02-28T14:44:12;3.10;;;1.20;;
74465;SDS011;62916;50.044;15.938;2023-02-28T14:46:45;5.60;;;1.40;;
74465;SDS011;62916;50.044;15.938;2023-02-28T14:49:20;5.30;;;1.30;;
74465;SDS011;62916;50.044;15.938;2023-02-28T14:52:03;4.70;;;1.50;;
74465;SDS011;62916;50.044;15.938;2023-02-28T14:54:42;4.90;;;1.90;;
74465;SDS011;62916;50.044;15.938;2023-02-28T14:57:24;5.30;;;1.50;;
74465;SDS011;62916;50.044;15.938;2023-02-28T15:00:04;4.40;;;1.60;;
74465;SDS011;62916;50.044;15.938;2023-02-28T15:02:43;3.60;;;1.90;;
74465;SDS011;62916;50.044;15.938;2023-02-28T15:05:25;4.90;;;1.60;;
74465;SDS011;62916;50.044;15.938;2023-02-28T15:08:10;5.40;;;1.40;;
74465;SDS011;62916;50.044;15.938;2023-02-28T15:10:43;4.30;;;1.60;;
74465;SDS011;62916;50.044;15.938;2023-02-28T15:13:19;3.00;;;1.30;;
74465;SDS011;62916;50.044;15.938;2023-02-28T15:15:53;3.70;;;1.60;;
74465;SDS011;62916;50.044;15.938;2023-02-28T15:18:33;3.20;;;1.40;;
74465;SDS011;62916;50.044;15.938;2023-02-28T15:21:13;2.00;;;1.30;;
74465;SDS011;62916;50.044;15.938;2023-02-28T15:23:48;3.00;;;1.30;;
74465;SDS011;62916;50.044;15.938;2023-02-28T15:26:23;3.70;;;1.50;;
74465;SDS011;62916;50.044;15.938;2023-02-28T15:29:00;5.10;;;2.10;;
74465;SDS011;62916;50.044;15.938;2023-02-28T15:31:35;4.60;;;1.70;;
74465;SDS011;62916;50.044;15.938;2023-02-28T15:34:27;4.90;;;1.80;;
74465;SDS011;62916;50.044;15.938;2023-02-28T15:40:04;4.40;;;1.70;;
74465;SDS011;62916;50.044;15.938;2023-02-28T15:42:40;4.60;;;2.10;;
74465;SDS011;62916;50.044;15.938;2023-02-28T15:48:14;5.10;;;1.80;;
74465;SDS011;62916;50.044;15.938;2023-02-28T15:50:51;3.00;;;1.90;;
74465;SDS011;62916;50.044;15.938;2023-02-28T15:53:25;4.30;;;2.00;;
74465;SDS011;62916;50.044;15.938;2023-02-28T15:56:00;4.90;;;2.20;;
74465;SDS011;62916;50.044;15.938;2023-02-28T15:58:41;3.40;;;1.70;;
74465;SDS011;62916;50.044;15.938;2023-02-28T16:01:21;5.30;;;1.90;;
74465;SDS011;62916;50.044;15.938;2023-02-28T16:03:57;2.30;;;1.60;;
74465;SDS011;62916;50.044;15.938;2023-02-28T16:06:53;3.40;;;1.80;;
74465;SDS011;62916;50.044;15.938;2023-02-28T16:09:31;2.80;;;1.60;;
74465;SDS011;62916;50.044;15.938;2023-02-28T16:12:03;4.20;;;2.10;;
74465;SDS011;62916;50.044;15.938;2023-02-28T16:14:35;3.10;;;1.80;;